Time;durP1;ratioP1;P1;durP2;ratioP2;P2;SDS_P1;SDS_P2;PMS_P1;PMS_P2;Temp;Humidity;BMP_temperature;BMP_pressure;BME280_temperature;BME280_humidity;BME280_pressure;Samples;Min_cycle;Max_cycle;Signal;HPM_P1;HPM_P2
2023/09/21 00:02:28;;;;;;;;;;;;;;;13.54;75.32;98797.63;4996180;28;2257;-73
2023/09/21 00:05:21;;;;;;;;;;;;;;;13.54;75.16;98800.31;4993020;28;2646;-74
2023/09/21 00:08:12;;;;;;;;;;;;;;;13.54;75.00;98797.63;4994446;28;2532;-74
2023/09/21 00:11:04;;;;;;;;;;;;;;;13.55;75.29;98806.53;5005806;28;2168;-74
2023/09/21 00:13:56;;;;;;;;;;;;;;;13.56;75.30;98800.84;5000926;28;2362;-74
2023/09/21 00:16:48;;;;;;;;;;;;;;;13.57;75.26;98798.97;4993948;28;1867;-74
2023/09/21 00:19:40;;;;;;;;;;;;;;;13.56;75.15;98811.69;5005469;28;2135;-75
2023/09/21 00:22:32;;;;;;;;;;;;;;;13.56;75.22;98798.16;4997062;28;1949;-73
2023/09/21 00:25:26;;;;;;;;;;;;;;;13.57;75.22;98821.41;5001107;28;2027;-75
2023/09/21 00:28:20;;;;;;;;;;;;;;;13.57;75.17;98805.16;5001521;28;1863;-76
2023/09/21 00:31:12;;;;;;;;;;;;;;;13.57;75.16;98807.88;4999613;28;4720;-76
2023/09/21 00:34:05;;;;;;;;;;;;;;;13.58;75.45;98806.78;5000031;28;2102;-75
2023/09/21 00:36:57;;;;;;;;;;;;;;;13.58;75.52;98809.47;4996162;28;3561;-74
2023/09/21 00:39:49;;;;;;;;;;;;;;;13.58;75.40;98798.66;4997560;28;1712;-75
2023/09/21 00:42:41;;;;;;;;;;;;;;;13.59;75.40;98821.94;5004544;28;1672;-75
2023/09/21 00:45:32;;;;;;;;;;;;;;;13.59;75.45;98808.41;4992704;28;2167;-75
2023/09/21 00:48:25;;;;;;;;;;;;;;;13.58;75.60;98809.47;4989711;28;2670;-75
2023/09/21 00:51:17;;;;;;;;;;;;;;;13.59;75.60;98804.91;4990451;28;2120;-75
2023/09/21 00:54:09;;;;;;;;;;;;;;;13.60;75.60;98810.00;4990001;28;2080;-75
2023/09/21 00:57:00;;;;;;;;;;;;;;;13.61;75.63;98803.50;4989980;28;2118;-74
2023/09/21 00:59:52;;;;;;;;;;;;;;;13.60;75.55;98801.91;4992311;28;2147;-74
2023/09/21 01:02:46;;;;;;;;;;;;;;;13.61;75.48;98802.69;4984905;28;2299;-75
2023/09/21 01:05:39;;;;;;;;;;;;;;;13.61;75.66;98792.69;4990137;28;2437;-76
2023/09/21 01:08:34;;;;;;;;;;;;;;;13.62;75.67;98780.78;4988669;28;2397;-75
2023/09/21 01:11:26;;;;;;;;;;;;;;;13.62;75.61;98785.41;4992046;28;2417;-75
2023/09/21 01:14:18;;;;;;;;;;;;;;;13.62;75.73;98772.69;4988916;28;2116;-74
2023/09/21 01:17:10;;;;;;;;;;;;;;;13.63;75.67;98770.78;4988455;28;2149;-76
2023/09/21 01:20:18;;;;;;;;;;;;;;;13.62;75.42;98780.78;4983052;28;2135;-74
2023/09/21 01:23:10;;;;;;;;;;;;;;;13.63;75.50;98787.81;4987937;28;2174;-74
2023/09/21 01:26:03;;;;;;;;;;;;;;;13.63;75.67;98768.88;4999485;28;2163;-76
2023/09/21 01:28:56;;;;;;;;;;;;;;;13.64;75.68;98775.09;4988372;28;2530;-74
2023/09/21 01:31:48;;;;;;;;;;;;;;;13.63;75.50;98774.28;4985876;28;2803;-77
2023/09/21 01:34:41;;;;;;;;;;;;;;;13.64;75.58;98769.69;4990193;28;2441;-75
2023/09/21 01:37:32;;;;;;;;;;;;;;;13.64;75.73;98765.06;4989849;28;2410;-74
2023/09/21 01:40:23;;;;;;;;;;;;;;;13.65;75.55;98765.91;4988228;28;2105;-73
2023/09/21 01:43:16;;;;;;;;;;;;;;;13.65;75.49;98774.03;5004476;28;2122;-76
2023/09/21 01:46:08;;;;;;;;;;;;;;;13.64;75.52;98762.38;4993428;28;2154;-75
2023/09/21 01:49:00;;;;;;;;;;;;;;;13.67;75.73;98768.31;5002182;28;2068;-76
2023/09/21 01:51:52;;;;;;;;;;;;;;;13.66;75.75;98764.81;4999914;28;1627;-75
2023/09/21 01:54:44;;;;;;;;;;;;;;;13.67;75.76;98762.91;4990131;28;2129;-76
2023/09/21 01:57:36;;;;;;;;;;;;;;;13.67;75.74;98766.41;4992341;28;3515;-76
2023/09/21 02:00:34;;;;;;;;;;;;;;;13.67;75.88;98773.72;4994633;28;2081;-78
2023/09/21 02:03:28;;;;;;;;;;;;;;;13.67;75.73;98771.81;4993734;28;2126;-75
2023/09/21 02:06:20;;;;;;;;;;;;;;;13.68;75.53;98761.78;5000356;28;1968;-75
2023/09/21 02:09:15;;;;;;;;;;;;;;;13.68;75.62;98764.50;4995715;28;2063;-73
2023/09/21 02:12:07;;;;;;;;;;;;;;;13.68;75.70;98759.09;4996118;28;2211;-74
2023/09/21 02:14:59;;;;;;;;;;;;;;;13.68;75.57;98759.94;4992114;28;3977;-74
2023/09/21 02:17:51;;;;;;;;;;;;;;;13.69;75.70;98749.91;4989319;28;2238;-75
2023/09/21 02:20:45;;;;;;;;;;;;;;;13.69;75.72;98752.59;4990458;28;2036;-73
2023/09/21 02:23:38;;;;;;;;;;;;;;;13.69;75.53;98760.72;4986541;28;2706;-75
2023/09/21 02:26:30;;;;;;;;;;;;;;;13.69;75.81;98758.81;4986609;28;2152;-75
2023/09/21 02:29:22;;;;;;;;;;;;;;;13.70;75.77;98737.97;4945429;28;5120;-75
2023/09/21 02:32:14;;;;;;;;;;;;;;;13.70;75.68;98746.09;4946117;28;4073;-76
2023/09/21 02:35:07;;;;;;;;;;;;;;;13.71;75.72;98755.84;4952403;28;2193;-74
2023/09/21 02:37:58;;;;;;;;;;;;;;;13.69;75.51;98753.41;4948493;28;2055;-75
2023/09/21 02:40:50;;;;;;;;;;;;;;;13.70;75.59;98746.91;4958971;28;2368;-75
2023/09/21 02:43:42;;;;;;;;;;;;;;;13.72;75.77;98752.03;4959614;28;2386;-75
2023/09/21 02:46:33;;;;;;;;;;;;;;;13.70;75.36;98746.91;4953522;28;2348;-75
2023/09/21 02:49:25;;;;;;;;;;;;;;;13.71;75.65;98756.66;4958043;28;3895;-75
2023/09/21 02:52:17;;;;;;;;;;;;;;;13.72;75.80;98757.44;4964122;28;2192;-75
2023/09/21 02:55:09;;;;;;;;;;;;;;;13.73;75.85;98745.53;4956915;28;2081;-76
2023/09/21 02:58:04;;;;;;;;;;;;;;;13.72;75.78;98736.63;4961858;28;1414;-74
2023/09/21 03:00:56;;;;;;;;;;;;;;;13.72;75.86;98739.31;4955064;28;2332;-77
2023/09/21 03:03:47;;;;;;;;;;;;;;;13.74;75.80;98736.34;4950840;28;2226;-74
2023/09/21 03:06:42;;;;;;;;;;;;;;;13.74;75.80;98736.34;4947983;28;2742;-72
2023/09/21 03:09:33;;;;;;;;;;;;;;;13.73;75.65;98734.72;4954272;28;2251;-75
2023/09/21 03:12:24;;;;;;;;;;;;;;;13.73;75.73;98732.81;4958518;28;1985;-75
2023/09/21 03:15:18;;;;;;;;;;;;;;;13.74;75.80;98733.63;4951082;28;2928;-76
2023/09/21 03:18:09;;;;;;;;;;;;;;;13.74;75.64;98742.56;4952077;28;2126;-75
2023/09/21 03:21:02;;;;;;;;;;;;;;;13.75;75.82;98737.94;4953169;28;2251;-75
2023/09/21 03:23:54;;;;;;;;;;;;;;;13.75;75.76;98732.53;4956114;28;2078;-77
2023/09/21 03:26:46;;;;;;;;;;;;;;;13.75;75.71;98741.47;4954879;28;2659;-77
2023/09/21 03:29:37;;;;;;;;;;;;;;;13.76;75.76;98734.13;4992716;28;2496;-76
2023/09/21 03:32:29;;;;;;;;;;;;;;;13.76;75.81;98742.25;4993923;28;2119;-75
2023/09/21 03:35:21;;;;;;;;;;;;;;;13.75;75.83;98730.63;4987701;28;2421;-76
2023/09/21 03:38:13;;;;;;;;;;;;;;;13.76;75.88;98726.81;4994902;28;2603;-76
2023/09/21 03:41:05;;;;;;;;;;;;;;;13.77;75.86;98731.16;5001041;28;2204;-77
2023/09/21 03:43:57;;;;;;;;;;;;;;;13.77;75.79;98733.06;4993302;28;2061;-74
2023/09/21 03:46:49;;;;;;;;;;;;;;;13.77;75.95;98727.66;4984417;28;2243;-75
2023/09/21 03:49:40;;;;;;;;;;;;;;;13.77;75.77;98731.16;4999417;28;2108;-74
2023/09/21 03:52:32;;;;;;;;;;;;;;;13.77;75.88;98728.47;4994197;28;2108;-74
2023/09/21 03:55:24;;;;;;;;;;;;;;;13.78;75.87;98730.06;5001644;28;2160;-73
2023/09/21 03:58:16;;;;;;;;;;;;;;;13.77;75.91;98735.78;4989324;28;2277;-74
2023/09/21 04:01:09;;;;;;;;;;;;;;;13.77;75.95;98725.75;4999256;28;2127;-74
2023/09/21 04:04:05;;;;;;;;;;;;;;;13.78;75.99;98730.06;4988470;28;2219;-73
2023/09/21 04:06:57;;;;;;;;;;;;;;;13.80;76.07;98729.78;4992076;28;2211;-73
2023/09/21 04:09:49;;;;;;;;;;;;;;;13.79;75.85;98742.50;4998207;28;2068;-74
2023/09/21 04:12:41;;;;;;;;;;;;;;;13.80;75.84;98736.00;4992392;28;2214;-74
2023/09/21 04:15:33;;;;;;;;;;;;;;;13.79;76.06;98734.38;4984948;28;3439;-74
2023/09/21 04:18:25;;;;;;;;;;;;;;;13.80;76.06;98721.69;4986762;28;2103;-74
2023/09/21 04:21:17;;;;;;;;;;;;;;;13.80;76.00;98721.69;4988811;28;2236;-75
2023/09/21 04:24:09;;;;;;;;;;;;;;;13.80;76.08;98716.25;4988767;28;2374;-77
2023/09/21 04:27:03;;;;;;;;;;;;;;;13.80;76.05;98725.19;4990184;28;2095;-74
2023/09/21 04:29:54;;;;;;;;;;;;;;;13.80;76.09;98716.25;4990372;28;2234;-74
2023/09/21 04:32:46;;;;;;;;;;;;;;;13.81;76.12;98718.66;4996351;28;2089;-75
2023/09/21 04:35:38;;;;;;;;;;;;;;;13.81;75.98;98723.28;4998156;28;1701;-74
2023/09/21 04:38:30;;;;;;;;;;;;;;;13.82;76.25;98719.47;5005999;28;2015;-73
2023/09/21 04:41:22;;;;;;;;;;;;;;;13.81;76.22;98720.56;4997648;28;2166;-74
2023/09/21 04:44:14;;;;;;;;;;;;;;;13.82;76.09;98714.06;5000181;28;2229;-74
2023/09/21 04:47:06;;;;;;;;;;;;;;;13.83;76.16;98707.56;4996037;28;1898;-73
2023/09/21 04:49:58;;;;;;;;;;;;;;;13.83;76.01;98713.78;5003970;28;1284;-74
2023/09/21 04:52:50;;;;;;;;;;;;;;;13.83;76.12;98716.50;4999978;28;1698;-74
2023/09/21 04:55:42;;;;;;;;;;;;;;;13.84;76.19;98709.19;4994594;28;2805;-75
2023/09/21 04:58:34;;;;;;;;;;;;;;;13.83;76.24;98704.88;4988610;28;2410;-73
2023/09/21 05:01:27;;;;;;;;;;;;;;;13.85;76.13;98702.66;4988445;28;4645;-74
2023/09/21 05:04:19;;;;;;;;;;;;;;;13.84;76.09;98701.06;4989096;28;3093;-76
2023/09/21 05:07:13;;;;;;;;;;;;;;;13.83;76.20;98711.09;4993953;28;2157;-76
2023/09/21 05:10:06;;;;;;;;;;;;;;;13.84;76.29;98706.47;4999124;28;2071;-75
2023/09/21 05:12:58;;;;;;;;;;;;;;;13.84;76.21;98709.97;4988293;28;2092;-73
2023/09/21 05:15:51;;;;;;;;;;;;;;;13.85;76.11;98699.97;4980237;28;3420;-75
2023/09/21 05:18:43;;;;;;;;;;;;;;;13.85;76.28;98705.38;4985995;28;2612;-75
2023/09/21 05:21:35;;;;;;;;;;;;;;;13.85;76.06;98705.38;4985264;28;2848;-73
2023/09/21 05:24:27;;;;;;;;;;;;;;;13.84;76.25;98709.19;4991541;28;2302;-74
2023/09/21 05:27:21;;;;;;;;;;;;;;;13.85;76.02;98708.91;4993818;28;3824;-75
2023/09/21 05:30:15;;;;;;;;;;;;;;;13.85;76.29;98725.16;4986425;28;3697;-75
2023/09/21 05:33:07;;;;;;;;;;;;;;;13.85;76.28;98719.72;5001348;28;2094;-75
2023/09/21 05:36:04;;;;;;;;;;;;;;;13.85;76.34;98717.03;4996087;28;2250;-74
2023/09/21 05:38:56;;;;;;;;;;;;;;;13.86;76.32;98715.91;4988527;28;4549;-73
2023/09/21 05:41:48;;;;;;;;;;;;;;;13.85;76.20;98724.31;5000104;28;2054;-73
2023/09/21 05:44:40;;;;;;;;;;;;;;;13.86;75.92;98715.13;4996186;28;2156;-73
2023/09/21 05:47:32;;;;;;;;;;;;;;;13.88;76.20;98717.53;4998909;28;2242;-74
2023/09/21 05:50:24;;;;;;;;;;;;;;;13.86;76.07;98718.63;4993045;28;2510;-75
2023/09/21 05:53:16;;;;;;;;;;;;;;;13.87;76.28;98714.00;4988543;28;2672;-73
2023/09/21 05:56:08;;;;;;;;;;;;;;;13.88;76.08;98714.81;4989025;28;2408;-74
2023/09/21 05:59:00;;;;;;;;;;;;;;;13.88;76.14;98709.41;4988638;28;4021;-76
2023/09/21 06:01:51;;;;;;;;;;;;;;;13.87;76.16;98716.72;4996032;28;4616;-73
2023/09/21 06:04:43;;;;;;;;;;;;;;;13.88;75.86;98712.13;4998967;28;2492;-73
2023/09/21 06:07:35;;;;;;;;;;;;;;;13.89;76.13;98705.63;4990025;28;2331;-75
2023/09/21 06:10:30;;;;;;;;;;;;;;;13.89;76.10;98700.22;5010224;28;1092;-75
2023/09/21 06:13:25;;;;;;;;;;;;;;;13.88;76.11;98704.78;4998913;28;2556;-75
2023/09/21 06:16:16;;;;;;;;;;;;;;;13.90;76.29;98712.63;4998422;28;1981;-74
2023/09/21 06:19:09;;;;;;;;;;;;;;;13.89;76.04;98711.84;4997249;28;2011;-74
2023/09/21 06:22:00;;;;;;;;;;;;;;;13.90;76.15;98712.63;4989704;28;2122;-75
2023/09/21 06:24:52;;;;;;;;;;;;;;;13.89;76.08;98711.84;4997701;28;2120;-74
2023/09/21 06:27:44;;;;;;;;;;;;;;;13.90;76.23;98705.31;4998054;28;1973;-74
2023/09/21 06:30:35;;;;;;;;;;;;;;;13.90;76.15;98709.94;4985706;28;2239;-74
2023/09/21 06:33:27;;;;;;;;;;;;;;;13.89;76.11;98706.44;4991094;28;4872;-74
2023/09/21 06:36:20;;;;;;;;;;;;;;;13.90;76.18;98708.03;4992488;28;4496;-75
2023/09/21 06:39:12;;;;;;;;;;;;;;;13.90;76.07;98709.94;4997378;28;3370;-76
2023/09/21 06:42:03;;;;;;;;;;;;;;;13.91;76.02;98720.47;5001789;28;2528;-76
2023/09/21 06:44:56;;;;;;;;;;;;;;;13.92;76.14;98735.63;4992455;28;2637;-75
2023/09/21 06:47:48;;;;;;;;;;;;;;;13.91;76.22;98725.88;4998009;28;2398;-75
2023/09/21 06:50:40;;;;;;;;;;;;;;;13.92;76.05;98715.88;4991842;28;2386;-75
2023/09/21 06:53:32;;;;;;;;;;;;;;;13.92;76.29;98711.25;4999596;28;2878;-75
2023/09/21 06:56:24;;;;;;;;;;;;;;;13.92;76.16;98727.50;4988504;28;2337;-77
2023/09/21 06:59:16;;;;;;;;;;;;;;;13.93;76.16;98726.41;4986928;28;2949;-74
2023/09/21 07:02:08;;;;;;;;;;;;;;;13.92;76.05;98732.91;4993594;28;2360;-74
2023/09/21 07:05:00;;;;;;;;;;;;;;;13.93;76.34;98722.91;4992999;28;2719;-75
2023/09/21 07:07:53;;;;;;;;;;;;;;;13.94;76.18;98727.19;4990193;28;2442;-75
2023/09/21 07:10:45;;;;;;;;;;;;;;;13.94;76.34;98721.78;4989412;28;2531;-75
2023/09/21 07:13:37;;;;;;;;;;;;;;;13.94;76.13;98719.09;4992990;28;2878;-75
2023/09/21 07:16:29;;;;;;;;;;;;;;;13.94;76.21;98711.78;4984234;28;2654;-74
2023/09/21 07:19:21;;;;;;;;;;;;;;;13.94;76.27;98717.22;4984037;28;2611;-74
2023/09/21 07:22:13;;;;;;;;;;;;;;;13.95;76.17;98713.41;4987099;28;2590;-74
2023/09/21 07:25:04;;;;;;;;;;;;;;;13.95;76.21;98701.78;4996272;28;2401;-73
2023/09/21 07:27:56;;;;;;;;;;;;;;;13.95;76.39;98702.56;4997044;28;2622;-73
2023/09/21 07:30:47;;;;;;;;;;;;;;;13.95;76.26;98702.56;4971091;28;2447;-73
2023/09/21 07:33:39;;;;;;;;;;;;;;;13.96;76.33;98706.09;4972633;28;2457;-77
2023/09/21 07:36:31;;;;;;;;;;;;;;;13.96;76.36;98695.25;4972250;28;3960;-75
2023/09/21 07:39:23;;;;;;;;;;;;;;;13.94;76.31;98692.84;4968986;28;2485;-76
2023/09/21 07:42:15;;;;;;;;;;;;;;;13.96;76.55;98692.56;4965188;28;4864;-73
2023/09/21 07:45:07;;;;;;;;;;;;;;;13.97;76.47;98696.84;4972709;28;3737;-76
2023/09/21 07:47:59;;;;;;;;;;;;;;;13.96;76.46;98700.66;4971356;28;2295;-74
2023/09/21 07:50:51;;;;;;;;;;;;;;;13.97;76.25;98696.84;4972741;28;2486;-74
2023/09/21 07:53:43;;;;;;;;;;;;;;;13.97;76.33;98695.00;4967064;28;2495;-75
2023/09/21 07:56:36;;;;;;;;;;;;;;;13.97;76.42;98688.75;4968432;28;3525;-76
2023/09/21 07:59:27;;;;;;;;;;;;;;;13.98;76.21;98679.56;4972656;28;2283;-74
2023/09/21 08:02:18;;;;;;;;;;;;;;;13.97;76.40;98678.75;4981977;28;2241;-74
2023/09/21 08:05:10;;;;;;;;;;;;;;;13.98;76.27;98674.13;4974920;28;2736;-73
2023/09/21 08:08:02;;;;;;;;;;;;;;;13.98;76.23;98680.34;4974052;28;2593;-74
2023/09/21 08:10:54;;;;;;;;;;;;;;;13.98;76.25;98680.34;4985317;28;2780;-76
2023/09/21 08:13:46;;;;;;;;;;;;;;;13.98;76.31;98688.47;4973699;28;2217;-75
2023/09/21 08:16:38;;;;;;;;;;;;;;;13.98;76.33;98688.47;4982221;28;2835;-74
2023/09/21 08:19:30;;;;;;;;;;;;;;;13.99;76.19;98702.81;4975407;28;2257;-74
2023/09/21 08:22:21;;;;;;;;;;;;;;;13.99;76.27;98684.66;4972370;28;2447;-74
2023/09/21 08:25:13;;;;;;;;;;;;;;;14.00;76.34;98685.47;4970884;28;2306;-75
2023/09/21 08:28:05;;;;;;;;;;;;;;;14.00;76.18;98683.59;4983205;28;2908;-74
2023/09/21 08:30:57;;;;;;;;;;;;;;;14.01;76.02;98698.72;4969986;28;4291;-74
2023/09/21 08:33:49;;;;;;;;;;;;;;;14.01;76.38;98689.78;4972050;28;2360;-74
2023/09/21 08:36:44;;;;;;;;;;;;;;;14.01;76.21;98712.25;4968177;28;4242;-73
2023/09/21 08:39:36;;;;;;;;;;;;;;;14.01;76.42;98696.00;4985690;28;2924;-74
2023/09/21 08:42:27;;;;;;;;;;;;;;;14.02;76.27;98696.81;4972285;28;2222;-75
2023/09/21 08:45:20;;;;;;;;;;;;;;;14.02;76.47;98705.72;4975592;28;2702;-76
2023/09/21 08:48:15;;;;;;;;;;;;;;;14.03;76.46;98696.53;4971604;28;2618;-75
2023/09/21 08:51:07;;;;;;;;;;;;;;;14.03;76.55;98710.06;5001912;28;2263;-76
2023/09/21 08:53:59;;;;;;;;;;;;;;;14.03;76.53;98693.00;5001961;28;2111;-74
2023/09/21 08:56:55;;;;;;;;;;;;;;;14.04;76.53;98694.63;5004127;28;2496;-75
2023/09/21 08:59:47;;;;;;;;;;;;;;;14.04;76.40;98678.41;4999661;28;2108;-75
2023/09/21 09:02:39;;;;;;;;;;;;;;;14.04;76.43;98681.91;4974043;28;2270;-75
2023/09/21 09:05:30;;;;;;;;;;;;;;;14.05;76.44;98688.13;4981554;28;3531;-75
2023/09/21 09:08:22;;;;;;;;;;;;;;;14.05;76.74;98678.09;4980975;28;2187;-73
2023/09/21 09:11:13;;;;;;;;;;;;;;;14.05;76.68;98685.41;5000937;28;2226;-75
2023/09/21 09:14:05;;;;;;;;;;;;;;;14.07;76.48;98691.34;5004869;28;2279;-75
2023/09/21 09:16:57;;;;;;;;;;;;;;;14.06;76.54;98687.03;4989995;28;2217;-74
2023/09/21 09:19:50;;;;;;;;;;;;;;;14.06;76.61;98679.72;5009944;28;1023;-76
2023/09/21 09:22:42;;;;;;;;;;;;;;;14.06;76.68;98679.72;4985968;28;3255;-74
2023/09/21 09:25:34;;;;;;;;;;;;;;;14.07;76.70;98685.94;4998069;28;1986;-75
2023/09/21 09:28:26;;;;;;;;;;;;;;;14.07;76.64;98675.91;5002508;28;2023;-73
2023/09/21 09:31:18;;;;;;;;;;;;;;;14.08;76.57;98682.94;4999055;28;2209;-77
2023/09/21 09:34:12;;;;;;;;;;;;;;;14.09;76.86;98683.75;5004866;28;2308;-75
2023/09/21 09:37:05;;;;;;;;;;;;;;;14.09;76.55;98692.69;5005701;28;1323;-75
2023/09/21 09:39:57;;;;;;;;;;;;;;;14.09;76.64;98684.56;4991486;28;3542;-75
2023/09/21 09:42:49;;;;;;;;;;;;;;;14.09;76.80;98681.84;5002441;28;2427;-75
2023/09/21 09:45:42;;;;;;;;;;;;;;;14.09;76.97;98681.84;5008580;28;1043;-73
2023/09/21 09:48:34;;;;;;;;;;;;;;;14.11;76.81;98678.03;4983109;28;2717;-73
2023/09/21 09:51:26;;;;;;;;;;;;;;;14.11;76.65;98672.63;4987492;28;2663;-73
2023/09/21 09:54:18;;;;;;;;;;;;;;;14.12;76.79;98687.75;4977546;28;2277;-74
2023/09/21 09:57:13;;;;;;;;;;;;;;;14.11;77.02;98678.84;4973310;28;3634;-74
2023/09/21 10:00:20;;;;;;;;;;;;;;;14.12;77.01;98669.66;4975262;28;2164;-73
2023/09/21 10:03:11;;;;;;;;;;;;;;;14.12;77.05;98694.00;4977387;28;2497;-74
2023/09/21 10:06:02;;;;;;;;;;;;;;;14.14;76.91;98674.75;4982162;28;3659;-74
2023/09/21 10:08:56;;;;;;;;;;;;;;;14.15;76.88;98681.78;4973351;28;2666;-76
2023/09/21 10:11:47;;;;;;;;;;;;;;;14.15;76.88;98679.06;4973152;28;2444;-75
2023/09/21 10:14:39;;;;;;;;;;;;;;;14.15;76.96;98679.91;4978713;28;2243;-76
2023/09/21 10:17:31;;;;;;;;;;;;;;;14.15;76.68;98679.91;4972984;28;2655;-75
2023/09/21 10:20:27;;;;;;;;;;;;;;;14.16;76.90;98691.53;4980086;28;2519;-75
2023/09/21 10:23:19;;;;;;;;;;;;;;;14.16;76.96;98691.53;4970239;28;2405;-74
2023/09/21 10:26:11;;;;;;;;;;;;;;;14.18;76.99;98692.06;4972052;28;2700;-73
2023/09/21 10:29:07;;;;;;;;;;;;;;;14.18;77.33;98697.47;4972715;28;2171;-75
2023/09/21 10:32:00;;;;;;;;;;;;;;;14.18;77.14;98697.47;4972108;28;2690;-73
2023/09/21 10:34:52;;;;;;;;;;;;;;;14.18;77.10;98697.47;4976061;28;2655;-76
2023/09/21 10:37:44;;;;;;;;;;;;;;;14.19;77.04;98696.38;4972435;28;2171;-76
2023/09/21 10:40:36;;;;;;;;;;;;;;;14.20;77.15;98692.56;4975029;28;2128;-75
2023/09/21 10:43:29;;;;;;;;;;;;;;;14.20;77.49;98698.78;4973583;28;2717;-73
2023/09/21 10:46:20;;;;;;;;;;;;;;;14.20;77.39;98708.78;4975805;28;2179;-73
2023/09/21 10:49:12;;;;;;;;;;;;;;;14.20;77.20;98700.69;4971819;28;2674;-75
2023/09/21 10:52:04;;;;;;;;;;;;;;;14.22;77.07;98712.03;4972544;28;2322;-74
2023/09/21 10:54:56;;;;;;;;;;;;;;;14.21;77.31;98703.09;4971579;28;2267;-74
2023/09/21 10:57:48;;;;;;;;;;;;;;;14.21;77.39;98700.41;4972873;28;2229;-77
2023/09/21 11:00:39;;;;;;;;;;;;;;;14.23;77.42;98708.22;4975510;28;2110;-75
2023/09/21 11:03:31;;;;;;;;;;;;;;;14.22;77.35;98714.75;4972324;28;2262;-74
2023/09/21 11:06:23;;;;;;;;;;;;;;;14.22;77.13;98718.25;4973238;28;2932;-78
2023/09/21 11:09:15;;;;;;;;;;;;;;;14.23;77.36;98716.34;4972045;28;2262;-77
2023/09/21 11:12:08;;;;;;;;;;;;;;;14.24;77.50;98720.69;4972275;28;2146;-77
2023/09/21 11:15:00;;;;;;;;;;;;;;;14.24;77.43;98721.47;4974437;28;2180;-75
2023/09/21 11:17:52;;;;;;;;;;;;;;;14.24;77.49;98718.78;4974281;28;2191;-75
2023/09/21 11:20:44;;;;;;;;;;;;;;;14.24;77.53;98707.94;4974594;28;2730;-74
2023/09/21 11:23:36;;;;;;;;;;;;;;;14.24;77.46;98729.59;4969924;28;2463;-79
2023/09/21 11:26:27;;;;;;;;;;;;;;;14.25;77.54;98722.28;4976814;28;2159;-76
2023/09/21 11:29:19;;;;;;;;;;;;;;;14.26;77.65;98737.41;4970221;28;2875;-76
2023/09/21 11:32:11;;;;;;;;;;;;;;;14.25;77.60;98725.00;4975063;28;2420;-77
2023/09/21 11:35:02;;;;;;;;;;;;;;;14.26;77.53;98730.09;4973151;28;2258;-77
2023/09/21 11:37:54;;;;;;;;;;;;;;;14.26;77.71;98740.94;4983743;28;3046;-75
2023/09/21 11:40:46;;;;;;;;;;;;;;;14.27;77.80;98734.44;4996171;28;2323;-77
2023/09/21 11:43:37;;;;;;;;;;;;;;;14.26;77.77;98730.09;4979659;28;2370;-78
2023/09/21 11:46:29;;;;;;;;;;;;;;;14.27;77.85;98736.34;5002732;28;2327;-76
2023/09/21 11:49:21;;;;;;;;;;;;;;;14.27;77.86;98737.16;5004424;28;2558;-75
2023/09/21 11:52:14;;;;;;;;;;;;;;;14.29;77.77;98744.97;4981535;28;2210;-75
2023/09/21 11:55:06;;;;;;;;;;;;;;;14.28;77.92;98740.66;4984840;28;2770;-74
2023/09/21 11:57:58;;;;;;;;;;;;;;;14.29;77.89;98736.84;4996541;28;2274;-77
2023/09/21 12:00:53;;;;;;;;;;;;;;;14.28;77.99;98738.75;4994805;28;1901;-77
2023/09/21 12:03:45;;;;;;;;;;;;;;;14.29;77.89;98742.25;5013722;28;879;-75
2023/09/21 12:06:37;;;;;;;;;;;;;;;14.30;77.76;98735.78;4999597;28;4468;-76
2023/09/21 12:09:29;;;;;;;;;;;;;;;14.30;77.79;98738.47;4999849;28;2119;-76
2023/09/21 12:12:21;;;;;;;;;;;;;;;14.30;77.96;98738.47;5004278;28;3152;-75
2023/09/21 12:15:13;;;;;;;;;;;;;;;14.31;77.78;98730.06;4988258;28;2899;-75
2023/09/21 12:18:07;;;;;;;;;;;;;;;14.30;77.92;98736.56;4999994;28;2511;-75
2023/09/21 12:21:00;;;;;;;;;;;;;;;14.30;77.77;98738.47;4992116;28;2023;-74
2023/09/21 12:23:52;;;;;;;;;;;;;;;14.31;77.81;98737.38;4992124;28;2902;-74
2023/09/21 12:26:44;;;;;;;;;;;;;;;14.31;77.78;98746.31;4993223;28;2436;-75
2023/09/21 12:29:36;;;;;;;;;;;;;;;14.32;77.87;98744.41;4989290;28;2480;-76
2023/09/21 12:32:28;;;;;;;;;;;;;;;14.31;77.78;98751.72;4980731;28;2267;-75
2023/09/21 12:35:25;;;;;;;;;;;;;;;14.32;77.75;98749.81;4972340;28;2366;-76
2023/09/21 12:38:16;;;;;;;;;;;;;;;14.33;77.65;98754.16;4977847;28;2574;-74
2023/09/21 12:41:09;;;;;;;;;;;;;;;14.32;77.84;98753.34;4970471;28;2499;-74
2023/09/21 12:44:01;;;;;;;;;;;;;;;14.32;77.77;98757.94;4974577;28;2807;-76
2023/09/21 12:46:53;;;;;;;;;;;;;;;14.34;77.82;98747.63;4975201;28;2746;-75
2023/09/21 12:49:45;;;;;;;;;;;;;;;14.35;77.84;98765.47;5006071;28;2421;-76
2023/09/21 12:52:37;;;;;;;;;;;;;;;14.34;77.81;98768.50;4999574;28;4683;-75
2023/09/21 12:55:29;;;;;;;;;;;;;;;14.35;77.77;98765.47;4982773;28;2394;-75
2023/09/21 12:58:21;;;;;;;;;;;;;;;14.36;77.80;98763.59;5005702;28;2630;-74
2023/09/21 13:01:13;;;;;;;;;;;;;;;14.35;77.94;98779.03;5008297;28;1193;-74
2023/09/21 13:04:05;;;;;;;;;;;;;;;14.35;77.86;98789.06;4999037;28;1037;-75
2023/09/21 13:06:58;;;;;;;;;;;;;;;14.35;77.90;98787.16;5013880;28;975;-74
2023/09/21 13:09:50;;;;;;;;;;;;;;;14.36;78.15;98804.22;5005046;28;1907;-76
2023/09/21 13:12:41;;;;;;;;;;;;;;;14.37;77.95;98801.22;5001498;28;1113;-75
2023/09/21 13:15:33;;;;;;;;;;;;;;;14.37;77.94;98816.66;4969854;28;3199;-74
2023/09/21 13:18:25;;;;;;;;;;;;;;;14.37;78.00;98811.25;4972763;28;2201;-74
2023/09/21 13:21:17;;;;;;;;;;;;;;;14.37;77.90;98813.97;4981980;28;2202;-74
2023/09/21 13:24:09;;;;;;;;;;;;;;;14.37;77.92;98814.75;4972121;28;2187;-76
2023/09/21 13:27:02;;;;;;;;;;;;;;;14.37;77.77;98814.75;4972964;28;2210;-74
2023/09/21 13:29:53;;;;;;;;;;;;;;;14.37;77.93;98800.41;4984808;28;2158;-74
2023/09/21 13:32:47;;;;;;;;;;;;;;;14.37;77.83;98809.34;5001759;28;1740;-74
2023/09/21 13:35:38;;;;;;;;;;;;;;;14.38;77.86;98815.56;4985858;28;2232;-74
2023/09/21 13:38:30;;;;;;;;;;;;;;;14.38;77.80;98815.56;4999408;28;2386;-75
2023/09/21 13:41:22;;;;;;;;;;;;;;;14.37;77.85;98820.16;4983638;28;2665;-75
2023/09/21 13:44:14;;;;;;;;;;;;;;;14.39;77.85;98825.31;4970974;28;2208;-74
2023/09/21 13:47:06;;;;;;;;;;;;;;;14.38;77.86;98827.19;4971487;28;2246;-74
2023/09/21 13:49:58;;;;;;;;;;;;;;;14.38;77.96;98829.91;4978246;28;2319;-74
2023/09/21 13:52:50;;;;;;;;;;;;;;;14.38;77.69;98829.09;4971681;28;2655;-76
2023/09/21 13:55:42;;;;;;;;;;;;;;;14.39;77.85;98833.44;4971076;28;2250;-75
2023/09/21 13:58:35;;;;;;;;;;;;;;;14.39;77.65;98830.72;4981588;28;2139;-74
2023/09/21 14:01:27;;;;;;;;;;;;;;;14.38;77.70;98829.91;4971860;28;2202;-74
2023/09/21 14:04:21;;;;;;;;;;;;;;;14.39;77.66;98836.16;4972975;28;2139;-77
2023/09/21 14:07:14;;;;;;;;;;;;;;;14.40;77.64;98840.47;4971474;28;2223;-77
2023/09/21 14:10:06;;;;;;;;;;;;;;;14.38;77.79;98827.19;4973300;28;2292;-74
2023/09/21 14:12:58;;;;;;;;;;;;;;;14.39;77.53;98828.81;4983435;28;2522;-76
2023/09/21 14:15:49;;;;;;;;;;;;;;;14.39;77.52;98830.72;4997100;28;5098;-75
2023/09/21 14:18:41;;;;;;;;;;;;;;;14.39;77.71;98812.56;4998562;28;2158;-75
2023/09/21 14:21:33;;;;;;;;;;;;;;;14.38;77.55;98816.34;4985112;28;2163;-74
2023/09/21 14:24:25;;;;;;;;;;;;;;;14.39;77.65;98828.03;5000468;28;2168;-75
2023/09/21 14:27:17;;;;;;;;;;;;;;;13.95;77.50;98748.59;4979300;28;3553;-75
2023/09/21 14:30:08;;;;;;;;;;;;;;;14.39;77.50;98809.06;4979959;28;2358;-73
2023/09/21 14:33:00;;;;;;;;;;;;;;;14.39;77.54;98807.16;4984219;28;2238;-77
2023/09/21 14:35:52;;;;;;;;;;;;;;;14.38;77.40;98818.25;4995551;28;2504;-73
2023/09/21 14:38:44;;;;;;;;;;;;;;;14.39;77.43;98817.19;4981646;28;2238;-74
2023/09/21 14:41:35;;;;;;;;;;;;;;;14.39;77.55;98814.47;5004127;28;2138;-74
2023/09/21 14:44:27;;;;;;;;;;;;;;;14.39;77.41;98819.91;5008141;28;1538;-73
2023/09/21 14:47:19;;;;;;;;;;;;;;;14.39;77.54;98814.47;5004243;28;2138;-74
2023/09/21 14:50:11;;;;;;;;;;;;;;;14.38;77.34;98808.22;4985049;28;2198;-77
2023/09/21 14:53:03;;;;;;;;;;;;;;;14.39;77.52;98809.88;5007801;28;2023;-76
2023/09/21 14:55:55;;;;;;;;;;;;;;;14.39;77.54;98803.66;5003757;28;1546;-75
2023/09/21 14:58:47;;;;;;;;;;;;;;;14.40;77.48;98802.53;5002938;28;2216;-73
2023/09/21 15:01:39;;;;;;;;;;;;;;;14.39;77.36;98814.47;4993526;28;2091;-74
2023/09/21 15:04:31;;;;;;;;;;;;;;;14.39;77.43;98822.59;4974722;28;2242;-75
2023/09/21 15:07:23;;;;;;;;;;;;;;;14.38;77.36;98821.78;4976087;28;2193;-76
2023/09/21 15:10:14;;;;;;;;;;;;;;;14.39;77.31;98809.88;4982661;28;2409;-75